Time;durP1;ratioP1;P1;durP2;ratioP2;P2;SDS_P1;SDS_P2;PMS_P1;PMS_P2;Temp;Humidity;BMP_temperature;BMP_pressure;BME280_temperature;BME280_humidity;BME280_pressure;Samples;Min_cycle;Max_cycle;Signal;HPM_P1;HPM_P2
2022/05/13 00:00:42;;;;;;;0.40;0.20;;;16.90;99.90;;;;;;5090984;28;20469;-69
2022/05/13 00:03:11;;;;;;;0.60;0.60;;;17.00;99.90;;;;;;5091324;28;20461;-69
2022/05/13 00:05:36;;;;;;;0.60;0.50;;;16.90;99.90;;;;;;5071621;28;20402;-69
2022/05/13 00:08:02;;;;;;;0.40;0.30;;;16.80;99.90;;;;;;5073145;28;20374;-69
2022/05/13 00:10:28;;;;;;;0.40;0.20;;;16.80;99.90;;;;;;5090767;28;20378;-69
2022/05/13 00:12:54;;;;;;;0.40;0.20;;;16.80;99.90;;;;;;5091040;28;20405;-69
2022/05/13 00:15:24;;;;;;;0.40;0.20;;;16.70;99.90;;;;;;5071911;28;20477;-69
2022/05/13 00:17:56;;;;;;;0.90;0.60;;;16.70;99.90;;;;;;5090852;28;20444;-69
2022/05/13 00:20:23;;;;;;;0.40;0.30;;;16.70;99.90;;;;;;5089920;28;20451;-69
2022/05/13 00:22:52;;;;;;;0.40;0.20;;;16.60;99.90;;;;;;5090724;28;20473;-69
2022/05/13 00:25:20;;;;;;;0.40;0.25;;;16.60;99.90;;;;;;5089819;28;20779;-69
2022/05/13 00:27:47;;;;;;;0.40;0.20;;;16.60;99.90;;;;;;5072560;28;20777;-69
2022/05/13 00:30:13;;;;;;;1.50;1.30;;;16.60;99.90;;;;;;5090254;28;20464;-69
2022/05/13 00:32:40;;;;;;;0.70;0.70;;;16.60;99.90;;;;;;5090259;28;20429;-69
2022/05/13 00:35:07;;;;;;;0.40;0.20;;;16.70;99.90;;;;;;5090997;28;20890;-69
2022/05/13 00:37:33;;;;;;;0.40;0.20;;;16.60;99.90;;;;;;5089011;28;20473;-69
2022/05/13 00:39:59;;;;;;;0.40;0.40;;;16.70;99.90;;;;;;5072027;28;20390;-69
2022/05/13 00:42:25;;;;;;;0.40;0.20;;;16.60;99.90;;;;;;5089764;28;20754;-69
2022/05/13 00:44:50;;;;;;;0.40;0.20;;;16.60;99.90;;;;;;5090065;28;20417;-69
2022/05/13 00:47:16;;;;;;;0.40;0.40;;;16.70;99.90;;;;;;5071596;28;20405;-70
2022/05/13 00:49:43;;;;;;;0.40;0.20;;;16.60;99.90;;;;;;5089514;28;20472;-69
2022/05/13 00:52:09;;;;;;;0.40;0.30;;;16.70;99.90;;;;;;5097241;28;20400;-69
2022/05/13 00:54:38;;;;;;;0.60;0.60;;;16.60;99.90;;;;;;5096544;28;20385;-69
2022/05/13 00:57:05;;;;;;;0.40;0.20;;;16.60;99.90;;;;;;5097288;28;20401;-68
2022/05/13 00:59:33;;;;;;;0.40;0.20;;;16.70;99.90;;;;;;5096417;28;20429;-69
2022/05/13 01:01:59;;;;;;;0.40;0.20;;;16.60;99.90;;;;;;5097252;28;20414;-69
2022/05/13 01:04:26;;;;;;;0.40;0.30;;;16.60;99.90;;;;;;5096686;28;20459;-68
2022/05/13 01:06:57;;;;;;;0.40;0.30;;;16.70;99.90;;;;;;5097610;28;20737;-68
2022/05/13 01:09:26;;;;;;;0.40;0.30;;;16.60;99.90;;;;;;5095948;28;20431;-69
2022/05/13 01:11:55;;;;;;;0.40;0.20;;;16.70;99.90;;;;;;5097064;28;20373;-68
2022/05/13 01:14:29;;;;;;;0.40;0.30;;;16.70;99.90;;;;;;5096271;28;20443;-69
2022/05/13 01:20:19;;;;;;;0.40;0.40;;;16.60;99.90;;;;;;5096733;28;20427;-68
2022/05/13 01:22:53;;;;;;;0.40;0.38;;;16.60;99.90;;;;;;5096566;28;20389;-69
2022/05/13 01:25:24;;;;;;;0.40;0.20;;;16.60;99.90;;;;;;5093026;28;20462;-70
2022/05/13 01:27:50;;;;;;;0.40;0.20;;;16.60;99.90;;;;;;5097081;28;20761;-68
2022/05/13 01:30:21;;;;;;;0.40;0.30;;;16.60;99.90;;;;;;5096743;28;20891;-68
2022/05/13 01:32:47;;;;;;;0.40;0.30;;;16.60;99.90;;;;;;5079233;28;20393;-68
2022/05/13 01:35:13;;;;;;;0.40;0.20;;;16.60;99.90;;;;;;5096449;28;20484;-68
2022/05/13 01:37:39;;;;;;;0.40;0.30;;;16.60;99.90;;;;;;5096513;28;21023;-68
2022/05/13 01:40:06;;;;;;;0.40;0.20;;;16.50;99.90;;;;;;5097193;28;20374;-68
2022/05/13 01:42:33;;;;;;;0.40;0.30;;;16.60;99.90;;;;;;5095780;28;20394;-68
2022/05/13 01:44:59;;;;;;;0.50;0.50;;;16.50;99.90;;;;;;5096586;28;20469;-68
2022/05/13 01:47:25;;;;;;;0.50;0.50;;;16.50;99.90;;;;;;5095337;28;20935;-68
2022/05/13 01:49:52;;;;;;;0.40;0.20;;;16.50;99.90;;;;;;5096148;28;20409;-68
2022/05/13 01:52:18;;;;;;;0.40;0.20;;;16.50;99.90;;;;;;5079135;28;20377;-68
2022/05/13 01:54:43;;;;;;;0.40;0.20;;;16.50;99.90;;;;;;5095529;28;20942;-68
2022/05/13 01:57:09;;;;;;;0.40;0.30;;;16.50;99.90;;;;;;5096760;28;20481;-68
2022/05/13 01:59:35;;;;;;;0.40;0.20;;;16.50;99.90;;;;;;5096010;28;20390;-68
2022/05/13 02:02:00;;;;;;;0.40;0.30;;;16.50;99.90;;;;;;5094947;28;20393;-68
2022/05/13 02:04:26;;;;;;;0.40;0.20;;;16.50;99.90;;;;;;5092267;28;20443;-69
2022/05/13 02:06:52;;;;;;;0.40;0.20;;;16.50;99.90;;;;;;5093528;28;20374;-68
2022/05/13 02:09:17;;;;;;;0.40;0.20;;;16.40;99.90;;;;;;5093186;28;20413;-68
2022/05/13 02:11:45;;;;;;;0.40;0.23;;;16.40;99.90;;;;;;5092563;28;20397;-69
2022/05/13 02:14:15;;;;;;;0.40;0.20;;;16.40;99.90;;;;;;5092907;28;20459;-68
2022/05/13 02:16:40;;;;;;;0.40;0.40;;;16.30;99.90;;;;;;5092473;28;20469;-69
2022/05/13 02:19:07;;;;;;;0.40;0.30;;;16.30;99.90;;;;;;5092704;28;20854;-69
2022/05/13 02:21:32;;;;;;;0.40;0.20;;;16.30;99.90;;;;;;5092578;28;20374;-69
2022/05/13 02:23:58;;;;;;;0.50;0.50;;;16.40;99.90;;;;;;5092831;28;20392;-69
2022/05/13 02:26:24;;;;;;;0.40;0.20;;;16.30;99.90;;;;;;5092689;28;20466;-69
2022/05/13 02:28:50;;;;;;;0.40;0.20;;;16.30;99.90;;;;;;5093336;28;20410;-69
2022/05/13 02:31:16;;;;;;;0.40;0.30;;;16.40;99.90;;;;;;5092721;28;20866;-69
2022/05/13 02:33:43;;;;;;;0.40;0.20;;;16.30;99.90;;;;;;5092462;28;20436;-69
2022/05/13 02:36:11;;;;;;;0.40;0.20;;;16.40;99.90;;;;;;5092786;28;20788;-69
2022/05/13 02:38:38;;;;;;;0.40;0.30;;;16.40;99.90;;;;;;5092183;28;20393;-69
2022/05/13 02:41:13;;;;;;;0.40;0.20;;;16.40;99.90;;;;;;5092999;28;20404;-68
2022/05/13 02:43:53;;;;;;;0.40;0.30;;;16.40;99.90;;;;;;5091731;28;20504;-69
2022/05/13 02:46:32;;;;;;;0.40;0.40;;;16.40;99.90;;;;;;5093052;28;20777;-69
2022/05/13 02:48:59;;;;;;;0.40;0.30;;;16.40;99.90;;;;;;5092344;28;20456;-69
2022/05/13 02:51:26;;;;;;;0.40;0.20;;;16.30;99.90;;;;;;5092328;28;20769;-70
2022/05/13 02:53:52;;;;;;;0.40;0.20;;;16.40;99.90;;;;;;5092326;28;20394;-69
2022/05/13 02:56:18;;;;;;;0.40;0.30;;;16.50;99.90;;;;;;5092667;28;20476;-69
2022/05/13 02:58:45;;;;;;;0.40;0.20;;;16.50;99.90;;;;;;5091183;28;20489;-69
2022/05/13 03:01:12;;;;;;;0.40;0.35;;;16.50;99.90;;;;;;5092472;28;20415;-68
2022/05/13 03:03:39;;;;;;;0.65;0.65;;;16.50;99.90;;;;;;5091634;28;20393;-69
2022/05/13 03:06:05;;;;;;;0.40;0.33;;;16.50;99.90;;;;;;5073639;28;20687;-69
2022/05/13 03:08:31;;;;;;;0.40;0.40;;;16.50;99.90;;;;;;5091502;28;20418;-69
2022/05/13 03:10:57;;;;;;;2.90;1.30;;;16.50;99.90;;;;;;5091869;28;20382;-69
2022/05/13 03:13:23;;;;;;;0.40;0.20;;;16.40;99.90;;;;;;5090891;28;20402;-69
2022/05/13 03:15:48;;;;;;;0.40;0.20;;;16.50;99.90;;;;;;5090989;28;20390;-68
2022/05/13 03:18:14;;;;;;;0.40;0.20;;;16.40;99.90;;;;;;5091851;28;20911;-69
2022/05/13 03:20:41;;;;;;;0.40;0.40;;;16.40;99.90;;;;;;5090926;28;20954;-69
2022/05/13 03:23:07;;;;;;;0.40;0.30;;;16.50;99.90;;;;;;5092174;28;20386;-68
2022/05/13 03:25:32;;;;;;;0.40;0.20;;;16.50;99.90;;;;;;5091274;28;20382;-69
2022/05/13 03:27:58;;;;;;;0.40;0.20;;;16.60;99.90;;;;;;5092070;28;20968;-69
2022/05/13 03:30:25;;;;;;;0.40;0.20;;;16.60;99.90;;;;;;5091441;28;20382;-69
2022/05/13 03:32:52;;;;;;;0.40;0.20;;;16.50;99.90;;;;;;5091268;28;20397;-68
2022/05/13 03:35:19;;;;;;;0.40;0.20;;;16.40;99.90;;;;;;5092341;28;20385;-68
2022/05/13 03:37:45;;;;;;;0.40;0.20;;;16.50;99.90;;;;;;5091092;28;20386;-68
2022/05/13 03:40:13;;;;;;;0.40;0.20;;;16.50;99.90;;;;;;5091638;28;20402;-68
2022/05/13 03:42:39;;;;;;;0.40;0.30;;;16.60;99.90;;;;;;5090153;28;20547;-69
2022/05/13 03:45:07;;;;;;;0.60;0.60;;;16.60;99.90;;;;;;5091606;28;20854;-69
2022/05/13 03:47:32;;;;;;;0.40;0.20;;;16.60;99.90;;;;;;5090033;28;20898;-69
2022/05/13 03:49:58;;;;;;;0.40;0.20;;;16.70;99.90;;;;;;5090926;28;20457;-69
2022/05/13 03:52:24;;;;;;;0.40;0.30;;;16.80;99.90;;;;;;5091065;28;20389;-69
2022/05/13 03:54:50;;;;;;;0.70;0.70;;;16.70;99.90;;;;;;5090920;28;20386;-69
2022/05/13 03:57:16;;;;;;;0.40;0.20;;;16.70;99.90;;;;;;5090576;28;20525;-69
2022/05/13 03:59:41;;;;;;;0.40;0.20;;;17.00;99.90;;;;;;5090256;28;20382;-69
2022/05/13 04:02:07;;;;;;;0.40;0.30;;;17.30;99.90;;;;;;5091218;28;20481;-68
2022/05/13 04:08:56;;;;;;;1.70;1.00;;;17.60;99.90;;;;;;5090155;28;21036;-69
2022/05/13 04:10:05;;;;;;;0.40;0.20;;;17.90;99.90;;;;;;5090431;28;20471;-69
2022/05/13 04:17:59;;;;;;;0.40;0.20;;;18.40;99.90;;;;;;5090816;28;20397;-68
2022/05/13 04:20:25;;;;;;;0.40;0.30;;;18.40;99.90;;;;;;5090435;28;20395;-68
2022/05/13 04:22:51;;;;;;;0.40;0.30;;;18.40;99.90;;;;;;5089672;28;20424;-68
2022/05/13 04:25:17;;;;;;;0.70;0.70;;;18.20;99.90;;;;;;5090277;28;20902;-68
2022/05/13 04:27:43;;;;;;;0.40;0.30;;;18.00;99.90;;;;;;5089780;28;20386;-68
2022/05/13 04:30:10;;;;;;;0.40;0.30;;;17.90;99.90;;;;;;5090243;28;20479;-67
2022/05/13 04:32:35;;;;;;;0.40;0.20;;;17.80;99.90;;;;;;5090155;28;20436;-69
2022/05/13 04:35:01;;;;;;;0.40;0.20;;;17.70;99.90;;;;;;5090948;28;20427;-68
2022/05/13 04:37:28;;;;;;;0.40;0.30;;;17.80;99.90;;;;;;5088297;28;20374;-68
2022/05/13 04:39:55;;;;;;;0.40;0.40;;;17.90;99.90;;;;;;5077714;28;20376;-68
2022/05/13 04:45:06;;;;;;;0.40;0.20;;;18.00;99.90;;;;;;5085219;28;20409;-68
2022/05/13 04:50:16;;;;;;;0.40;0.30;;;18.10;99.90;;;;;;5089845;28;20466;-68
2022/05/13 04:52:42;;;;;;;0.40;0.20;;;18.20;99.90;;;;;;5090155;28;20386;-68
2022/05/13 04:55:09;;;;;;;0.40;0.20;;;18.10;99.90;;;;;;5090584;28;20382;-68
2022/05/13 04:57:34;;;;;;;0.40;0.20;;;18.20;99.90;;;;;;5089643;28;20730;-69
2022/05/13 05:00:00;;;;;;;0.40;0.20;;;18.20;99.90;;;;;;5090357;28;20389;-68
2022/05/13 05:02:26;;;;;;;0.40;0.30;;;18.20;99.90;;;;;;5090762;28;20429;-67
2022/05/13 05:04:51;;;;;;;0.40;0.20;;;18.10;99.90;;;;;;5089293;28;20382;-68
2022/05/13 05:07:17;;;;;;;0.40;0.30;;;18.10;99.90;;;;;;5090812;28;20381;-67
2022/05/13 05:09:42;;;;;;;0.50;0.50;;;18.10;99.90;;;;;;5089268;28;20463;-69
2022/05/13 05:12:09;;;;;;;0.40;0.20;;;18.10;99.90;;;;;;5071524;28;20422;-68
2022/05/13 05:14:35;;;;;;;0.40;0.20;;;18.20;99.90;;;;;;5089815;28;20393;-69
2022/05/13 05:17:01;;;;;;;0.40;0.30;;;18.20;99.90;;;;;;5088639;28;20435;-68
2022/05/13 05:19:26;;;;;;;0.40;0.20;;;18.20;99.90;;;;;;5090418;28;20389;-68
2022/05/13 05:21:52;;;;;;;0.50;0.40;;;18.30;99.90;;;;;;5089730;28;20420;-68
2022/05/13 05:24:17;;;;;;;0.40;0.20;;;18.20;99.90;;;;;;5090624;28;20750;-69
2022/05/13 05:26:43;;;;;;;0.70;0.70;;;18.30;99.90;;;;;;5089195;28;20421;-69
2022/05/13 05:29:09;;;;;;;0.43;0.32;;;18.20;99.90;;;;;;5089832;28;20508;-68
2022/05/13 05:31:34;;;;;;;0.60;0.37;;;18.30;99.90;;;;;;5089649;28;20393;-69
2022/05/13 05:34:00;;;;;;;0.40;0.20;;;18.30;99.90;;;;;;5090224;28;20378;-69
2022/05/13 05:36:26;;;;;;;0.90;0.90;;;18.30;99.90;;;;;;5090480;28;20478;-69
2022/05/13 05:38:51;;;;;;;0.40;0.20;;;18.20;99.90;;;;;;5093366;28;20386;-69
2022/05/13 05:41:18;;;;;;;0.50;0.50;;;18.30;99.90;;;;;;5094506;28;20895;-69
2022/05/13 05:43:44;;;;;;;0.40;0.20;;;18.40;99.90;;;;;;5093062;28;20414;-68
2022/05/13 05:46:10;;;;;;;0.40;0.20;;;18.40;99.90;;;;;;5093885;28;20522;-67
2022/05/13 05:48:36;;;;;;;1.10;0.90;;;18.40;99.90;;;;;;5075275;28;20402;-68
2022/05/13 05:51:01;;;;;;;0.93;0.93;;;18.40;99.90;;;;;;5094244;28;20516;-68
2022/05/13 05:59:00;;;;;;;0.40;0.20;;;18.50;99.90;;;;;;5093322;28;20393;-69
2022/05/13 06:01:27;;;;;;;1.10;0.60;;;18.40;99.90;;;;;;5093304;28;20398;-68
2022/05/13 06:03:53;;;;;;;0.40;0.20;;;18.40;99.90;;;;;;5091932;28;20386;-68
2022/05/13 06:06:19;;;;;;;0.50;0.50;;;18.30;99.90;;;;;;5092706;28;20874;-69
2022/05/13 06:08:44;;;;;;;0.40;0.20;;;18.30;99.90;;;;;;5089881;28;20410;-69
2022/05/13 06:11:11;;;;;;;0.40;0.30;;;18.40;99.90;;;;;;5091940;28;20382;-68
2022/05/13 06:13:37;;;;;;;1.00;0.80;;;18.40;99.90;;;;;;5077589;28;20402;-69
2022/05/13 06:16:04;;;;;;;0.50;0.50;;;18.30;99.90;;;;;;5092839;28;20401;-68
2022/05/13 06:18:29;;;;;;;0.40;0.30;;;18.20;99.90;;;;;;5093465;28;20574;-69
2022/05/13 06:20:55;;;;;;;1.10;0.70;;;18.00;99.90;;;;;;5092655;28;20559;-69
2022/05/13 06:23:21;;;;;;;0.40;0.30;;;17.90;99.90;;;;;;5093379;28;20457;-68
2022/05/13 06:25:47;;;;;;;0.40;0.20;;;17.80;99.90;;;;;;5092238;28;20444;-69
2022/05/13 06:28:13;;;;;;;0.80;0.80;;;17.80;99.90;;;;;;5093451;28;20460;-69
2022/05/13 06:30:38;;;;;;;0.50;0.40;;;17.60;99.90;;;;;;5092255;28;20498;-71
2022/05/13 06:33:06;;;;;;;0.40;0.20;;;17.50;99.90;;;;;;5093237;28;20378;-68
2022/05/13 06:35:33;;;;;;;0.50;0.50;;;17.30;99.90;;;;;;5092865;28;20386;-70
2022/05/13 06:37:59;;;;;;;0.40;0.20;;;17.20;99.90;;;;;;5092241;28;21223;-70
2022/05/13 06:40:26;;;;;;;0.40;0.20;;;17.10;99.90;;;;;;5093321;28;20374;-69
2022/05/13 06:42:52;;;;;;;0.75;0.40;;;17.00;99.90;;;;;;5088986;28;20410;-69
2022/05/13 06:45:18;;;;;;;0.40;0.20;;;17.00;99.90;;;;;;5092871;28;20405;-69
2022/05/13 06:47:44;;;;;;;0.40;0.30;;;17.00;99.90;;;;;;5091506;28;20383;-69
2022/05/13 06:50:12;;;;;;;0.40;0.40;;;17.00;99.90;;;;;;5091574;28;20463;-69
2022/05/13 06:52:38;;;;;;;0.40;0.20;;;16.90;99.90;;;;;;5085594;28;20394;-71
2022/05/13 06:55:05;;;;;;;0.80;0.65;;;16.90;99.90;;;;;;5077961;28;20736;-71
2022/05/13 06:57:31;;;;;;;1.35;1.25;;;16.90;99.90;;;;;;5092704;28;20394;-70
2022/05/13 06:59:57;;;;;;;0.40;0.20;;;16.90;99.90;;;;;;5091694;28;20566;-71
2022/05/13 07:02:23;;;;;;;0.40;0.20;;;16.90;99.90;;;;;;5092573;28;20378;-71
2022/05/13 07:04:50;;;;;;;0.40;0.20;;;16.90;99.90;;;;;;5091852;28;20382;-71
2022/05/13 07:07:16;;;;;;;0.40;0.40;;;16.80;99.90;;;;;;5092737;28;20436;-71
2022/05/13 07:09:41;;;;;;;0.40;0.30;;;16.80;99.90;;;;;;5091519;28;20441;-73
2022/05/13 07:12:08;;;;;;;0.40;0.40;;;16.70;99.90;;;;;;5091978;28;20461;-74
2022/05/13 07:14:35;;;;;;;0.40;0.20;;;16.70;99.90;;;;;;5092332;28;20482;-78
2022/05/13 07:17:02;;;;;;;0.40;0.30;;;16.70;99.90;;;;;;5091493;28;20382;-75
2022/05/13 07:19:28;;;;;;;0.50;0.50;;;16.70;99.90;;;;;;5092270;28;20381;-75
2022/05/13 07:21:54;;;;;;;0.40;0.30;;;16.70;99.90;;;;;;5091030;28;20734;-75
2022/05/13 07:24:19;;;;;;;0.50;0.40;;;16.80;99.90;;;;;;5091716;28;20412;-76
2022/05/13 07:26:46;;;;;;;0.40;0.20;;;16.70;99.90;;;;;;5091057;28;20386;-75
2022/05/13 07:29:12;;;;;;;0.40;0.20;;;16.70;99.90;;;;;;5073658;28;20436;-75
2022/05/13 07:31:39;;;;;;;0.40;0.20;;;16.70;99.90;;;;;;5081791;28;20382;-76
2022/05/13 07:34:05;;;;;;;0.40;0.40;;;16.70;99.90;;;;;;5086498;28;20451;-76
2022/05/13 07:36:32;;;;;;;0.40;0.20;;;16.80;99.90;;;;;;5066724;28;20393;-74
2022/05/13 07:41:42;;;;;;;0.40;0.20;;;16.80;99.90;;;;;;5086426;28;20902;-76
2022/05/13 07:44:08;;;;;;;0.40;0.30;;;16.80;99.90;;;;;;5088750;28;20504;-76
2022/05/13 07:46:34;;;;;;;0.40;0.20;;;16.80;99.90;;;;;;5089716;28;20397;-78
2022/05/13 07:49:00;;;;;;;1.70;1.00;;;16.80;99.90;;;;;;5077007;28;20414;-76
2022/05/13 07:51:26;;;;;;;0.82;0.82;;;16.90;99.90;;;;;;5074859;28;20400;-77
2022/05/13 07:53:52;;;;;;;0.40;0.20;;;16.90;99.90;;;;;;5073598;28;20404;-79
2022/05/13 07:56:18;;;;;;;0.40;0.20;;;16.90;99.90;;;;;;5079152;28;20429;-78
2022/05/13 07:58:44;;;;;;;0.40;0.30;;;17.00;99.90;;;;;;5061058;28;20399;-77
2022/05/13 08:01:10;;;;;;;0.40;0.20;;;17.00;99.90;;;;;;5080649;28;20886;-81
2022/05/13 08:03:35;;;;;;;0.40;0.40;;;17.00;99.90;;;;;;5064177;28;20394;-82
2022/05/13 08:06:05;;;;;;;0.40;0.40;;;17.00;99.90;;;;;;5070876;28;20699;-79
2022/05/13 08:08:36;;;;;;;0.40;0.25;;;17.00;99.90;;;;;;5064680;28;20946;-75
2022/05/13 08:11:06;;;;;;;0.40;0.30;;;17.00;99.90;;;;;;5083688;28;20480;-76
2022/05/13 08:13:34;;;;;;;0.40;0.20;;;17.00;99.90;;;;;;5082325;28;20493;-77
2022/05/13 08:16:02;;;;;;;0.40;0.20;;;17.00;99.90;;;;;;5075042;28;20474;-74
2022/05/13 08:18:28;;;;;;;0.60;0.60;;;17.00;99.90;;;;;;5089546;28;20386;-72
2022/05/13 08:20:53;;;;;;;0.40;0.20;;;16.80;99.90;;;;;;5090618;28;20382;-83
2022/05/13 08:23:20;;;;;;;0.90;0.90;;;16.60;99.90;;;;;;5091735;28;20386;-83
2022/05/13 08:25:46;;;;;;;0.40;0.40;;;16.20;99.90;;;;;;5091246;28;20389;-83
2022/05/13 08:28:12;;;;;;;0.40;0.30;;;16.20;99.90;;;;;;5090666;28;20477;-82
2022/05/13 08:30:39;;;;;;;0.40;0.40;;;15.90;99.90;;;;;;5089492;28;20402;-85
2022/05/13 08:33:08;;;;;;;0.40;0.20;;;15.90;99.90;;;;;;5063609;28;20385;-88
2022/05/13 08:35:46;;;;;;;0.80;0.80;;;15.90;99.90;;;;;;5073380;28;20393;-82
2022/05/13 08:38:17;;;;;;;0.40;0.30;;;15.70;99.90;;;;;;5091573;28;20723;-82
2022/05/13 08:40:52;;;;;;;0.40;0.30;;;15.70;99.90;;;;;;5084893;28;20463;-84
2022/05/13 08:43:30;;;;;;;0.40;0.20;;;15.70;99.90;;;;;;5081073;28;20427;-78
2022/05/13 08:46:17;;;;;;;0.40;0.20;;;15.60;99.90;;;;;;5085544;28;20406;-80
2022/05/13 08:48:46;;;;;;;0.40;0.30;;;15.60;99.90;;;;;;5086354;28;20782;-80
2022/05/13 08:51:23;;;;;;;0.40;0.20;;;15.80;99.90;;;;;;5067124;28;20421;-79
2022/05/13 08:54:00;;;;;;;0.40;0.30;;;15.80;99.90;;;;;;5079636;28;20799;-78
2022/05/13 08:56:28;;;;;;;0.40;0.20;;;16.10;99.90;;;;;;5084812;28;20382;-77
2022/05/13 08:59:13;;;;;;;1.10;1.10;;;16.10;99.90;;;;;;5075146;28;20419;-77
2022/05/13 09:02:17;;;;;;;0.40;0.30;;;16.10;99.90;;;;;;5085765;28;20401;-76
2022/05/13 09:05:05;;;;;;;0.40;0.30;;;16.10;99.90;;;;;;5083530;28;20420;-79
2022/05/13 09:07:31;;;;;;;1.00;0.70;;;16.20;99.90;;;;;;5087304;28;20394;-81
2022/05/13 09:10:06;;;;;;;0.40;0.20;;;16.10;99.90;;;;;;5089903;28;20486;-80
2022/05/13 09:13:05;;;;;;;0.40;0.20;;;16.30;99.90;;;;;;5089794;28;20912;-80
2022/05/13 09:15:38;;;;;;;0.40;0.30;;;16.30;99.90;;;;;;5080200;28;21027;-80
2022/05/13 09:18:10;;;;;;;0.40;0.20;;;16.20;99.90;;;;;;5085322;28;20649;-80
2022/05/13 09:21:02;;;;;;;0.40;0.30;;;16.40;99.90;;;;;;5072582;28;20401;-79
2022/05/13 09:23:28;;;;;;;0.40;0.20;;;16.40;99.90;;;;;;5072622;28;20402;-79
2022/05/13 09:26:13;;;;;;;0.50;0.50;;;16.30;99.90;;;;;;5075980;28;20435;-79
2022/05/13 09:29:03;;;;;;;0.40;0.20;;;16.40;99.90;;;;;;5091874;28;20413;-79
2022/05/13 09:31:30;;;;;;;0.50;0.50;;;16.50;99.90;;;;;;5093704;28;20409;-79
2022/05/13 09:33:56;;;;;;;0.40;0.30;;;16.60;99.90;;;;;;5074224;28;20397;-78
2022/05/13 09:36:22;;;;;;;0.40;0.27;;;16.70;99.90;;;;;;5093177;28;20390;-79
2022/05/13 09:38:49;;;;;;;0.40;0.20;;;16.80;99.90;;;;;;5074078;28;20409;-78
2022/05/13 09:41:27;;;;;;;0.40;0.20;;;16.80;99.90;;;;;;5082397;28;20440;-78
2022/05/13 09:43:55;;;;;;;0.40;0.20;;;16.70;99.90;;;;;;5078115;28;20408;-79
2022/05/13 09:46:35;;;;;;;0.40;0.40;;;16.80;99.90;;;;;;5088547;28;20382;-76
2022/05/13 09:49:17;;;;;;;0.40;0.20;;;16.90;99.90;;;;;;5080158;28;20427;-76
2022/05/13 09:51:56;;;;;;;0.70;0.70;;;16.90;99.90;;;;;;5080719;28;20400;-76
2022/05/13 09:54:31;;;;;;;0.40;0.20;;;16.80;99.90;;;;;;5090194;28;20405;-76
2022/05/13 09:57:09;;;;;;;0.40;0.20;;;16.80;99.90;;;;;;5072524;28;20472;-77
2022/05/13 09:59:53;;;;;;;0.40;0.20;;;16.90;99.90;;;;;;5073742;28;20392;-77
2022/05/13 10:02:39;;;;;;;0.40;0.20;;;17.00;99.90;;;;;;5077707;28;20447;-78
2022/05/13 10:05:19;;;;;;;0.40;0.20;;;17.00;99.90;;;;;;5082550;28;20854;-77
2022/05/13 10:07:51;;;;;;;0.40;0.30;;;16.90;99.90;;;;;;5086149;28;20390;-76
2022/05/13 10:16:18;;;;;;;0.40;0.20;;;16.80;99.90;;;;;;5082422;28;20517;-76
2022/05/13 10:19:23;;;;;;;0.40;0.30;;;16.70;99.90;;;;;;5090373;28;20402;-77
2022/05/13 10:22:42;;;;;;;0.40;0.30;;;16.70;99.90;;;;;;5079908;28;20813;-77
2022/05/13 10:25:22;;;;;;;0.40;0.22;;;16.80;99.90;;;;;;5002640;28;20416;-77
2022/05/13 10:27:51;;;;;;;0.50;0.50;;;16.90;99.90;;;;;;5077225;28;20481;-77
2022/05/13 10:30:32;;;;;;;0.40;0.20;;;16.90;99.90;;;;;;5087384;28;20417;-76
2022/05/13 10:33:07;;;;;;;0.40;0.20;;;16.90;99.90;;;;;;5088777;28;20397;-76
2022/05/13 10:36:02;;;;;;;0.40;0.30;;;17.00;99.90;;;;;;5069996;28;20504;-76
2022/05/13 10:38:39;;;;;;;0.40;0.22;;;17.20;99.90;;;;;;5088837;28;20387;-76
2022/05/13 10:41:34;;;;;;;0.40;0.40;;;17.20;99.90;;;;;;5084705;28;20919;-76
2022/05/13 10:44:15;;;;;;;3.70;0.60;;;17.20;99.90;;;;;;5078946;28;20414;-75
2022/05/13 10:47:00;;;;;;;0.40;0.20;;;17.20;99.90;;;;;;5091274;28;20901;-76
2022/05/13 10:49:36;;;;;;;0.40;0.30;;;17.30;99.90;;;;;;5089462;28;20524;-77
2022/05/13 10:52:25;;;;;;;0.40;0.20;;;17.50;99.90;;;;;;5089494;28;20390;-75
2022/05/13 10:54:57;;;;;;;1.00;1.00;;;17.60;99.90;;;;;;5058104;28;21277;-75
2022/05/13 10:57:59;;;;;;;0.40;0.20;;;17.60;99.90;;;;;;5081305;28;20400;-75
2022/05/13 11:00:44;;;;;;;0.40;0.20;;;17.80;99.90;;;;;;5086823;28;20436;-75
2022/05/13 11:03:25;;;;;;;0.40;0.30;;;17.90;99.90;;;;;;5082080;28;21101;-75
2022/05/13 11:06:35;;;;;;;0.40;0.40;;;18.10;99.90;;;;;;5070719;28;20390;-75
2022/05/13 11:09:25;;;;;;;0.40;0.20;;;18.30;99.90;;;;;;5058480;28;20402;-76
2022/05/13 11:12:01;;;;;;;1.30;0.60;;;18.60;99.90;;;;;;5088651;28;20431;-75
2022/05/13 11:14:51;;;;;;;0.40;0.20;;;18.80;99.90;;;;;;5070959;28;20738;-75
2022/05/13 11:17:44;;;;;;;0.40;0.30;;;18.80;99.90;;;;;;5076606;28;20409;-73
2022/05/13 11:20:45;;;;;;;0.40;0.30;;;18.90;99.90;;;;;;5067064;28;20404;-73
2022/05/13 11:27:10;;;;;;;0.40;0.22;;;19.00;99.90;;;;;;5087666;28;20424;-71
2022/05/13 11:29:48;;;;;;;0.40;0.20;;;19.00;99.90;;;;;;5089678;28;20406;-71
2022/05/13 11:32:50;;;;;;;0.40;0.20;;;18.90;99.90;;;;;;5088814;28;20544;-71
2022/05/13 11:35:38;;;;;;;0.40;0.20;;;19.00;99.90;;;;;;5080904;28;20901;-71
2022/05/13 11:38:17;;;;;;;0.40;0.20;;;19.00;99.90;;;;;;5087240;28;20378;-70
2022/05/13 11:41:04;;;;;;;0.40;0.30;;;19.30;99.90;;;;;;5090229;28;20370;-70
2022/05/13 11:43:33;;;;;;;0.40;0.30;;;19.20;99.90;;;;;;5085377;28;20458;-71
2022/05/13 11:46:11;;;;;;;0.40;0.20;;;19.30;99.90;;;;;;5089428;28;20542;-70
2022/05/13 11:48:46;;;;;;;0.40;0.20;;;19.40;99.90;;;;;;5090249;28;20862;-70
2022/05/13 11:51:21;;;;;;;0.40;0.20;;;19.90;99.90;;;;;;5083499;28;20469;-69
2022/05/13 11:53:50;;;;;;;0.40;0.30;;;20.20;99.90;;;;;;5075215;28;20703;-69
2022/05/13 11:56:25;;;;;;;0.40;0.40;;;20.00;99.90;;;;;;5083042;28;20398;-70
2022/05/13 11:59:03;;;;;;;0.40;0.20;;;20.40;99.90;;;;;;5075846;28;20823;-70
2022/05/13 12:01:38;;;;;;;0.40;0.20;;;20.60;99.90;;;;;;5072890;28;20458;-69
2022/05/13 12:04:12;;;;;;;0.40;0.20;;;21.00;99.90;;;;;;5069438;28;20414;-69
2022/05/13 12:06:50;;;;;;;0.40;0.20;;;21.30;99.90;;;;;;5070548;28;20424;-69
2022/05/13 12:09:45;;;;;;;0.40;0.20;;;21.00;99.90;;;;;;5070210;28;20411;-68
2022/05/13 12:12:45;;;;;;;0.90;0.90;;;20.90;99.90;;;;;;5069810;28;20418;-69
2022/05/13 12:15:22;;;;;;;0.40;0.20;;;20.90;99.90;;;;;;5070290;28;21331;-69
2022/05/13 12:18:12;;;;;;;0.40;0.20;;;21.20;99.90;;;;;;5070847;28;20840;-69
2022/05/13 12:21:02;;;;;;;0.50;0.40;;;21.30;99.90;;;;;;5071217;28;20379;-69
2022/05/13 12:23:34;;;;;;;0.40;0.30;;;20.80;99.90;;;;;;5071206;28;20390;-69
2022/05/13 12:26:10;;;;;;;0.40;0.20;;;20.60;99.90;;;;;;5070666;28;20394;-69
2022/05/13 12:28:48;;;;;;;0.40;0.20;;;20.90;99.90;;;;;;5089106;28;20489;-69
2022/05/13 12:31:48;;;;;;;0.50;0.40;;;22.50;99.90;;;;;;5090568;28;20374;-69
2022/05/13 12:37:46;;;;;;;0.43;0.28;;;21.80;99.90;;;;;;5091096;28;20382;-69
2022/05/13 12:40:21;;;;;;;0.40;0.20;;;21.40;99.90;;;;;;5090555;28;20576;-69
2022/05/13 12:42:46;;;;;;;0.40;0.20;;;21.50;99.90;;;;;;5095219;28;20386;-69
2022/05/13 12:45:22;;;;;;;0.40;0.20;;;21.30;99.90;;;;;;5130259;27;20447;-69
2022/05/13 12:48:08;;;;;;;0.90;0.60;;;21.30;99.90;;;;;;5111188;28;20412;-69
2022/05/13 12:51:09;;;;;;;0.40;0.30;;;21.40;99.90;;;;;;5111352;28;20404;-69
2022/05/13 12:53:43;;;;;;;0.40;0.20;;;21.20;99.90;;;;;;5111499;28;20404;-69
2022/05/13 12:56:15;;;;;;;1.30;1.20;;;21.00;99.90;;;;;;5111246;28;20407;-69
2022/05/13 12:58:47;;;;;;;0.40;0.20;;;21.30;99.90;;;;;;5111502;28;20445;-69
2022/05/13 13:01:15;;;;;;;0.40;0.20;;;20.80;99.90;;;;;;5110584;28;20380;-69
2022/05/13 13:03:44;;;;;;;0.90;0.50;;;21.00;99.90;;;;;;5111020;28;20404;-69
2022/05/13 13:06:17;;;;;;;0.40;0.20;;;21.00;99.90;;;;;;5092121;28;20479;-69
2022/05/13 13:08:53;;;;;;;0.40;0.30;;;21.10;99.90;;;;;;5111155;28;20764;-68
2022/05/13 13:11:30;;;;;;;0.40;0.30;;;21.50;99.90;;;;;;5110605;28;20373;-69
2022/05/13 13:13:59;;;;;;;0.40;0.30;;;21.60;99.90;;;;;;5110562;28;20395;-70
2022/05/13 13:16:27;;;;;;;0.40;0.20;;;21.10;99.90;;;;;;5111035;28;20491;-69
2022/05/13 13:19:16;;;;;;;0.40;0.20;;;20.70;99.90;;;;;;5110757;28;20376;-68
2022/05/13 13:21:43;;;;;;;0.50;0.40;;;20.80;99.90;;;;;;5110608;28;20380;-69
2022/05/13 13:24:21;;;;;;;0.50;0.40;;;20.80;99.90;;;;;;5109905;28;20388;-69
2022/05/13 13:26:49;;;;;;;0.40;0.30;;;22.40;99.90;;;;;;5113946;28;20390;-69
2022/05/13 13:29:28;;;;;;;0.40;0.30;;;23.10;99.90;;;;;;5130203;28;20932;-70
2022/05/13 13:32:01;;;;;;;0.40;0.20;;;24.10;96.10;;;;;;5131286;28;20390;-69
2022/05/13 13:34:38;;;;;;;0.40;0.20;;;24.00;97.30;;;;;;5131456;28;20401;-70
2022/05/13 13:37:10;;;;;;;0.40;0.30;;;23.70;96.90;;;;;;5130688;28;20768;-70
2022/05/13 13:39:36;;;;;;;0.40;0.30;;;23.20;99.90;;;;;;5131379;28;20379;-69
2022/05/13 13:42:10;;;;;;;0.40;0.20;;;22.70;99.10;;;;;;5130367;28;20382;-71
2022/05/13 13:44:38;;;;;;;0.40;0.30;;;23.70;97.80;;;;;;5130827;28;20399;-70
2022/05/13 13:47:10;;;;;;;0.50;0.40;;;24.10;99.10;;;;;;5113378;28;20377;-70